Aviation Digital Data Service (ADDS)

Output produced by METARs form (0846 UTC 18 April 2015)
found at http://www.aviationweather.gov/adds/metars/
 
KJFK 180834Z 1809/1912 VRB04KT P6SM SKC 
     FM181500 22010KT P6SM SKC 
     FM181800 21015KT P6SM FEW080 
     FM182100 19018G24KT P6SM SCT080 
     FM182300 27014G22KT P6SM SCT080 
     FM190100 35013G21KT P6SM SKC 
     FM190600 02009KT P6SM FEW250